createdAt,value
2019-02-26T00:01:19.143Z,56.80
2019-02-26T00:03:47.830Z,56.60
2019-02-26T00:06:18.381Z,56.90
2019-02-26T00:08:49.300Z,57.00
2019-02-26T00:11:17.635Z,57.60
2019-02-26T00:13:48.071Z,57.70
2019-02-26T00:16:18.375Z,57.70
2019-02-26T00:18:47.433Z,58.10
2019-02-26T00:21:16.237Z,58.30
2019-02-26T00:23:46.661Z,57.60
2019-02-26T00:26:17.757Z,57.80
2019-02-26T00:28:46.165Z,57.10
2019-02-26T00:31:15.021Z,57.30
2019-02-26T00:33:44.214Z,58.10
2019-02-26T00:36:13.369Z,58.50
2019-02-26T00:38:44.422Z,58.60
2019-02-26T00:41:13.498Z,58.10
2019-02-26T00:43:42.271Z,58.30
2019-02-26T00:46:11.129Z,57.80
2019-02-26T00:48:40.731Z,58.30
2019-02-26T00:51:10.368Z,57.60
2019-02-26T00:53:39.117Z,57.00
2019-02-26T00:56:10.124Z,56.90
2019-02-26T00:58:39.215Z,57.60
2019-02-26T01:01:10.662Z,56.60
2019-02-26T01:03:40.670Z,55.40
2019-02-26T01:06:09.654Z,55.20
2019-02-26T01:08:40.076Z,55.40
2019-02-26T01:11:08.939Z,56.10
2019-02-26T01:13:37.738Z,56.20
2019-02-26T01:16:06.526Z,56.30
2019-02-26T01:18:35.290Z,56.60
2019-02-26T01:21:04.343Z,56.40
2019-02-26T01:23:33.237Z,57.00
2019-02-26T01:26:02.034Z,56.80
2019-02-26T01:28:30.818Z,56.60
2019-02-26T01:31:00.274Z,57.10
2019-02-26T01:33:31.947Z,56.80
2019-02-26T01:36:02.541Z,57.90
2019-02-26T01:38:30.899Z,55.80
2019-02-26T01:40:59.802Z,56.20
2019-02-26T01:43:28.605Z,56.90
2019-02-26T01:45:57.411Z,57.90
2019-02-26T01:48:26.293Z,57.10
2019-02-26T01:50:56.852Z,57.10
2019-02-26T01:53:27.294Z,58.50
2019-02-26T01:55:56.015Z,58.20
2019-02-26T01:58:24.749Z,56.60
2019-02-26T02:00:55.457Z,57.30
2019-02-26T02:03:25.505Z,58.00
2019-02-26T02:05:54.858Z,58.70
2019-02-26T02:08:25.754Z,57.70
2019-02-26T02:10:57.148Z,58.30
2019-02-26T02:13:28.351Z,57.30
2019-02-26T02:15:55.480Z,57.90
2019-02-26T02:18:25.918Z,57.70
2019-02-26T02:20:54.658Z,57.30
2019-02-26T02:23:24.068Z,57.50
2019-02-26T02:25:53.873Z,57.90
2019-02-26T02:28:23.996Z,58.60
2019-02-26T02:30:53.083Z,58.20
2019-02-26T02:33:24.240Z,57.50
2019-02-26T02:35:52.340Z,57.00
2019-02-26T02:38:21.073Z,57.80
2019-02-26T02:40:51.882Z,57.90
2019-02-26T02:43:21.366Z,58.00
2019-02-26T02:45:52.951Z,58.30
2019-02-26T02:48:21.123Z,58.30
2019-02-26T02:50:50.003Z,58.90
2019-02-26T02:53:21.016Z,59.00
2019-02-26T02:55:51.518Z,58.40
2019-02-26T02:58:21.300Z,58.00
2019-02-26T03:00:52.217Z,57.90
2019-02-26T03:03:20.577Z,59.40
2019-02-26T03:05:49.371Z,57.90
2019-02-26T03:08:19.483Z,58.50
2019-02-26T03:10:48.878Z,58.60
2019-02-26T03:13:20.024Z,58.90
2019-02-26T03:15:50.075Z,59.40
2019-02-26T03:18:18.521Z,60.20
2019-02-26T03:20:47.415Z,59.30
2019-02-26T03:23:19.832Z,59.20
2019-02-26T03:25:47.328Z,59.60
2019-02-26T03:28:17.507Z,59.00
2019-02-26T03:30:46.332Z,59.20
2019-02-26T03:33:15.262Z,59.20
2019-02-26T03:35:44.274Z,59.00
2019-02-26T03:38:14.998Z,58.80
2019-02-26T03:40:43.533Z,59.40
2019-02-26T03:43:13.247Z,58.90
2019-02-26T03:45:47.291Z,58.50
2019-02-26T03:48:13.329Z,58.40
2019-02-26T03:50:44.568Z,58.60
2019-02-26T03:53:12.538Z,58.00
2019-02-26T03:55:42.061Z,58.40
2019-02-26T03:58:11.724Z,58.50
2019-02-26T04:00:41.683Z,58.80
2019-02-26T04:03:12.456Z,58.30
2019-02-26T04:05:41.433Z,59.40
2019-02-26T04:08:10.374Z,58.40
2019-02-26T04:10:39.339Z,58.60
2019-02-26T04:13:08.170Z,58.80
2019-02-26T04:15:38.393Z,58.70
2019-02-26T04:18:07.504Z,57.90
2019-02-26T04:20:36.483Z,58.00
2019-02-26T04:23:05.415Z,57.80
2019-02-26T04:25:51.480Z,59.10
2019-02-26T04:28:32.973Z,58.70
2019-02-26T04:31:05.547Z,58.70
2019-02-26T04:33:56.819Z,58.10
2019-02-26T04:36:29.240Z,59.20
2019-02-26T04:39:18.935Z,58.70
2019-02-26T04:42:15.371Z,59.20
2019-02-26T04:44:50.016Z,60.40
2019-02-26T04:47:21.285Z,61.10
2019-02-26T04:49:49.087Z,58.40
2019-02-26T04:52:18.217Z,59.20
2019-02-26T04:54:47.027Z,58.80
2019-02-26T04:57:15.899Z,59.30
2019-02-26T04:59:44.821Z,59.40
2019-02-26T05:02:13.678Z,59.50
2019-02-26T05:04:42.811Z,60.00
2019-02-26T05:07:14.073Z,60.30
2019-02-26T05:09:42.166Z,59.60
2019-02-26T05:12:10.983Z,60.40
2019-02-26T05:14:39.738Z,60.50
2019-02-26T05:17:08.826Z,59.70
2019-02-26T05:19:39.624Z,58.90
2019-02-26T05:22:08.245Z,59.20
2019-02-26T05:24:38.553Z,60.00
2019-02-26T05:27:18.687Z,59.90
2019-02-26T05:29:48.786Z,60.30
2019-02-26T05:32:17.098Z,59.80
2019-02-26T05:34:50.177Z,58.80
2019-02-26T05:37:16.905Z,58.50
2019-02-26T05:39:46.794Z,58.70
2019-02-26T05:42:16.924Z,58.40
2019-02-26T05:44:45.900Z,59.70
2019-02-26T05:47:18.109Z,59.50
2019-02-26T05:49:45.959Z,59.10
2019-02-26T05:52:15.310Z,59.00
2019-02-26T05:54:44.402Z,59.60
2019-02-26T05:57:26.048Z,60.30
2019-02-26T05:59:44.235Z,60.10
2019-02-26T06:02:15.613Z,60.60
2019-02-26T06:04:44.603Z,61.00
2019-02-26T06:07:14.117Z,61.60
2019-02-26T06:09:45.352Z,60.30
2019-02-26T06:12:14.963Z,60.70
2019-02-26T06:14:43.883Z,60.30
2019-02-26T06:17:14.829Z,60.40
2019-02-26T06:19:45.188Z,59.80
2019-02-26T06:22:17.105Z,59.50
2019-02-26T06:24:44.919Z,59.50
2019-02-26T06:27:16.144Z,59.50
2019-02-26T06:29:44.406Z,61.00
2019-02-26T06:32:17.520Z,60.30
2019-02-26T06:34:46.275Z,60.90
2019-02-26T06:37:17.593Z,61.30
2019-02-26T06:39:50.631Z,60.40
2019-02-26T06:42:16.907Z,59.90
2019-02-26T06:44:47.147Z,60.20
2019-02-26T06:47:16.236Z,59.90
2019-02-26T06:49:45.782Z,60.00
2019-02-26T06:52:17.590Z,60.10
2019-02-26T06:54:50.552Z,60.50
2019-02-26T06:57:16.391Z,61.10
2019-02-26T06:59:45.257Z,60.90
2019-02-26T07:02:14.090Z,60.40
2019-02-26T07:04:42.840Z,60.20
2019-02-26T07:07:14.285Z,62.70
2019-02-26T07:09:43.937Z,60.40
2019-02-26T07:12:14.468Z,60.90
2019-02-26T07:14:43.284Z,60.40
2019-02-26T07:17:12.329Z,61.00
2019-02-26T07:19:41.083Z,61.60
2019-02-26T07:22:11.587Z,61.00
2019-02-26T07:24:41.808Z,61.00
2019-02-26T07:27:11.602Z,61.50
2019-02-26T07:29:44.373Z,62.30
2019-02-26T07:32:12.341Z,61.90
2019-02-26T07:34:44.653Z,60.50
2019-02-26T07:37:13.461Z,62.10
2019-02-26T07:39:44.345Z,62.00
2019-02-26T07:42:16.328Z,62.40
2019-02-26T07:44:44.286Z,62.30
2019-02-26T07:47:13.070Z,63.10
2019-02-26T07:49:41.929Z,63.00
2019-02-26T07:52:10.771Z,62.90
2019-02-26T07:54:42.209Z,63.30
2019-02-26T07:57:10.621Z,63.60
2019-02-26T07:59:40.397Z,63.00
2019-02-26T08:02:11.336Z,63.40
2019-02-26T08:04:41.819Z,62.60
2019-02-26T08:07:11.552Z,63.00
2019-02-26T08:09:40.342Z,62.20
2019-02-26T08:12:11.361Z,61.90
2019-02-26T08:14:41.054Z,61.70
2019-02-26T08:17:11.275Z,61.50
2019-02-26T08:19:43.731Z,61.60
2019-02-26T08:22:10.797Z,61.50
2019-02-26T08:24:39.902Z,61.60
2019-02-26T08:27:11.040Z,61.40
2019-02-26T08:29:39.535Z,61.10
2019-02-26T08:32:08.646Z,61.10
2019-02-26T08:34:39.761Z,61.00
2019-02-26T08:37:08.844Z,62.40
2019-02-26T08:39:38.039Z,61.00
2019-02-26T08:42:09.547Z,61.00
2019-02-26T08:44:38.316Z,60.00
2019-02-26T08:47:11.213Z,60.00
2019-02-26T08:49:40.107Z,59.60
2019-02-26T08:52:08.750Z,59.80
2019-02-26T08:54:37.668Z,58.70
2019-02-26T08:57:06.772Z,58.40
2019-02-26T08:59:36.629Z,57.50
2019-02-26T09:02:05.500Z,57.10
2019-02-26T09:04:35.159Z,56.70
2019-02-26T09:07:04.762Z,56.30
2019-02-26T09:09:33.590Z,56.00
2019-02-26T09:12:03.248Z,53.00
2019-02-26T09:14:34.382Z,53.50
2019-02-26T09:17:04.546Z,50.40
2019-02-26T09:19:35.488Z,47.90
2019-02-26T09:22:03.814Z,45.40
2019-02-26T09:27:03.336Z,45.20
2019-02-26T09:29:31.641Z,43.90
2019-02-26T09:32:00.614Z,42.50
2019-02-26T09:34:31.561Z,41.20
2019-02-26T09:37:01.174Z,39.00
2019-02-26T09:39:32.457Z,38.20
2019-02-26T09:42:02.261Z,37.30
2019-02-26T09:44:33.222Z,36.60
2019-02-26T09:47:04.426Z,35.70
2019-02-26T09:49:33.740Z,34.80
2019-02-26T09:52:03.962Z,33.40
2019-02-26T09:54:37.753Z,32.30
2019-02-26T10:04:03.085Z,28.50
2019-02-26T10:06:31.911Z,29.20
2019-02-26T10:09:01.108Z,29.00
2019-02-26T10:11:30.463Z,28.80
2019-02-26T10:13:59.807Z,28.80
2019-02-26T10:16:31.351Z,28.90
2019-02-26T10:18:59.827Z,28.70
2019-02-26T10:21:29.038Z,28.00
2019-02-26T10:23:59.442Z,27.40
2019-02-26T10:26:30.766Z,27.20
2019-02-26T10:29:04.364Z,26.70
2019-02-26T10:31:30.673Z,26.60
2019-02-26T10:34:00.151Z,26.10
2019-02-26T10:36:32.449Z,25.80
2019-02-26T10:39:02.286Z,25.90
2019-02-26T10:41:31.039Z,25.80
2019-02-26T10:44:00.353Z,25.90
2019-02-26T10:46:32.183Z,25.70
2019-02-26T10:49:00.535Z,26.40
2019-02-26T10:51:29.691Z,26.70
2019-02-26T10:53:59.878Z,27.00
2019-02-26T10:56:30.703Z,26.00
2019-02-26T10:59:03.461Z,25.20
2019-02-26T11:01:33.506Z,24.80
2019-02-26T11:04:04.269Z,24.60
2019-02-26T11:06:35.809Z,23.80
2019-02-26T11:09:04.710Z,23.90
2019-02-26T11:11:35.633Z,23.90
2019-02-26T11:14:05.710Z,23.70
2019-02-26T11:16:36.819Z,23.60
2019-02-26T11:19:07.548Z,23.80
2019-02-26T11:21:37.434Z,23.70
2019-02-26T11:27:51.373Z,24.20
2019-02-26T11:30:23.897Z,23.70
2019-02-26T11:32:56.032Z,23.30
2019-02-26T11:35:24.699Z,23.30
2019-02-26T11:37:55.402Z,22.80
2019-02-26T11:40:29.556Z,22.30
2019-02-26T11:42:56.421Z,22.40
2019-02-26T11:45:25.838Z,22.20
2019-02-26T11:47:55.781Z,21.80
2019-02-26T11:50:28.101Z,21.40
2019-02-26T11:52:56.469Z,21.50
2019-02-26T11:55:30.051Z,21.50
2019-02-26T11:57:58.136Z,21.30
2019-02-26T12:00:50.941Z,21.20
2019-02-26T12:03:22.832Z,20.10
2019-02-26T12:05:53.505Z,19.80
2019-02-26T12:08:22.843Z,20.60
2019-02-26T12:10:57.655Z,20.90
2019-02-26T12:13:27.478Z,21.00
2019-02-26T12:15:54.141Z,20.30
2019-02-26T12:18:22.936Z,21.10
2019-02-26T12:20:52.114Z,20.90
2019-02-26T12:23:22.720Z,20.50
2019-02-26T12:25:53.559Z,20.50
2019-02-26T12:28:22.748Z,20.10
2019-02-26T12:30:51.701Z,19.70
2019-02-26T12:33:20.613Z,19.90
2019-02-26T12:35:49.584Z,20.00
2019-02-26T12:38:21.449Z,19.20
2019-02-26T12:40:50.736Z,19.20
2019-02-26T12:43:19.772Z,19.40
2019-02-26T12:45:49.007Z,19.20
2019-02-26T12:48:20.213Z,19.30
2019-02-26T12:50:48.642Z,19.10
2019-02-26T12:53:18.908Z,19.50
2019-02-26T12:55:48.389Z,19.60
2019-02-26T12:58:20.020Z,19.50
2019-02-26T13:00:47.968Z,19.10
2019-02-26T13:03:19.649Z,19.10
2019-02-26T13:05:49.200Z,19.10
2019-02-26T13:10:51.504Z,18.60
2019-02-26T13:13:19.599Z,18.40
2019-02-26T13:15:48.395Z,18.40
2019-02-26T13:18:17.285Z,18.10
2019-02-26T13:20:46.280Z,18.70
2019-02-26T13:23:19.580Z,18.40
2019-02-26T13:25:46.173Z,18.70
2019-02-26T13:28:15.065Z,18.70
2019-02-26T13:30:43.899Z,18.20
2019-02-26T13:33:12.897Z,18.60
2019-02-26T13:35:45.617Z,18.40
2019-02-26T13:38:12.759Z,17.70
2019-02-26T13:40:41.727Z,17.70
2019-02-26T13:43:10.619Z,17.40
2019-02-26T13:45:39.758Z,17.70
2019-02-26T13:48:08.545Z,17.50
2019-02-26T13:50:39.098Z,17.50
2019-02-26T13:53:08.025Z,17.60
2019-02-26T13:55:36.973Z,17.20
2019-02-26T13:58:11.700Z,18.20
2019-02-26T14:00:36.744Z,18.40
2019-02-26T14:03:05.851Z,19.10
2019-02-26T14:05:38.083Z,19.40
2019-02-26T14:08:05.870Z,19.70
2019-02-26T14:10:34.820Z,20.20
2019-02-26T14:13:03.922Z,20.70
2019-02-26T14:15:32.940Z,21.30
2019-02-26T14:18:01.832Z,20.90
2019-02-26T14:20:30.823Z,21.30
2019-02-26T14:22:59.781Z,22.30
2019-02-26T14:25:28.879Z,22.50
2019-02-26T14:27:58.042Z,22.80
2019-02-26T14:30:26.990Z,22.80
2019-02-26T14:32:56.087Z,22.90
2019-02-26T14:35:25.123Z,23.70
2019-02-26T14:37:54.102Z,24.20
2019-02-26T14:40:23.179Z,23.60
2019-02-26T14:42:52.378Z,24.20
2019-02-26T14:45:22.876Z,24.40
2019-02-26T14:47:51.823Z,24.50
2019-02-26T14:50:21.880Z,24.80
2019-02-26T14:52:50.968Z,24.80
2019-02-26T14:55:19.977Z,24.80
2019-02-26T14:57:48.853Z,24.80
2019-02-26T15:00:36.116Z,24.90
2019-02-26T15:03:05.336Z,25.10
2019-02-26T15:05:34.633Z,25.10
2019-02-26T15:08:03.723Z,25.10
2019-02-26T15:10:32.671Z,25.30
2019-02-26T15:13:01.967Z,25.90
2019-02-26T15:15:31.234Z,25.00
2019-02-26T15:18:00.466Z,25.50
2019-02-26T15:20:29.753Z,25.60
2019-02-26T15:22:58.930Z,25.60
2019-02-26T15:25:31.700Z,25.70
2019-02-26T15:28:05.195Z,25.80
2019-02-26T15:30:31.674Z,25.20
2019-02-26T15:33:01.010Z,25.90
2019-02-26T15:35:30.174Z,26.10
2019-02-26T15:37:59.280Z,26.10
2019-02-26T15:40:28.594Z,26.10
2019-02-26T15:42:57.774Z,26.10
2019-02-26T15:45:31.023Z,26.00
2019-02-26T15:48:03.811Z,26.10
2019-02-26T15:50:30.898Z,25.50
2019-02-26T15:53:00.157Z,25.60
2019-02-26T15:55:31.756Z,25.70
2019-02-26T15:58:04.381Z,26.40
2019-02-26T16:00:31.860Z,26.40
2019-02-26T16:03:01.181Z,26.30
2019-02-26T16:05:33.323Z,27.10
2019-02-26T16:08:02.465Z,26.70
2019-02-26T16:10:31.600Z,26.30
2019-02-26T16:13:06.968Z,26.70
2019-02-26T16:15:39.720Z,26.30
2019-02-26T16:18:09.050Z,26.90
2019-02-26T16:20:37.986Z,27.10
2019-02-26T16:23:07.167Z,27.20
2019-02-26T16:25:36.502Z,26.90
2019-02-26T16:28:05.623Z,27.80
2019-02-26T16:30:34.852Z,28.10
2019-02-26T16:33:04.014Z,28.50
2019-02-26T16:35:33.265Z,28.70
2019-02-26T16:38:02.272Z,29.20
2019-02-26T16:40:32.255Z,29.40
2019-02-26T16:43:01.683Z,29.70
2019-02-26T16:45:34.421Z,30.40
2019-02-26T16:48:01.403Z,31.70
2019-02-26T16:50:33.583Z,30.50
2019-02-26T16:53:02.861Z,32.10
2019-02-26T16:55:32.211Z,31.70
2019-02-26T16:58:03.180Z,34.10
2019-02-26T17:00:32.690Z,34.90
2019-02-26T17:03:01.990Z,35.20
2019-02-26T17:05:31.248Z,35.00
2019-02-26T17:08:00.517Z,34.60
2019-02-26T17:10:30.686Z,35.80
2019-02-26T17:13:02.296Z,35.50
2019-02-26T17:15:34.727Z,37.50
2019-02-26T17:18:04.066Z,37.20
2019-02-26T17:20:33.088Z,37.30
2019-02-26T17:23:02.319Z,36.90
2019-02-26T17:25:31.416Z,38.30
2019-02-26T17:28:00.624Z,38.30
2019-02-26T17:30:29.851Z,38.30
2019-02-26T17:32:59.082Z,37.60
2019-02-26T17:35:29.584Z,37.90
2019-02-26T17:37:58.881Z,38.50
2019-02-26T17:40:28.083Z,39.00
2019-02-26T17:43:00.514Z,39.50
2019-02-26T17:45:48.870Z,39.50
2019-02-26T17:48:17.880Z,40.00
2019-02-26T17:50:46.959Z,39.70
2019-02-26T17:53:16.185Z,40.70
2019-02-26T17:55:46.877Z,39.30
2019-02-26T17:58:16.050Z,39.90
2019-02-26T18:00:46.679Z,40.20
2019-02-26T18:03:15.896Z,41.40
2019-02-26T18:05:51.346Z,41.30
2019-02-26T18:08:18.810Z,41.40
2019-02-26T18:10:46.435Z,42.50
2019-02-26T18:13:15.712Z,42.00
2019-02-26T18:15:44.867Z,41.40
2019-02-26T18:18:14.286Z,41.20
2019-02-26T18:20:43.467Z,43.50
2019-02-26T18:23:12.691Z,43.90
2019-02-26T18:25:41.994Z,44.60
2019-02-26T18:28:11.275Z,43.70
2019-02-26T18:30:40.520Z,44.40
2019-02-26T18:33:09.744Z,47.60
2019-02-26T18:35:38.844Z,45.50
2019-02-26T18:38:08.212Z,45.70
2019-02-26T18:40:38.916Z,46.30
2019-02-26T18:43:08.064Z,46.10
2019-02-26T18:45:37.204Z,45.30
2019-02-26T18:48:06.509Z,45.30
2019-02-26T18:50:35.804Z,45.80
2019-02-26T18:53:04.921Z,46.10
2019-02-26T18:55:34.016Z,46.30
2019-02-26T18:58:03.175Z,45.80
2019-02-26T19:00:34.306Z,46.60
2019-02-26T19:03:03.496Z,46.80
2019-02-26T19:05:32.796Z,47.20
2019-02-26T19:08:05.605Z,46.30
2019-02-26T19:10:32.567Z,46.10
2019-02-26T19:13:02.750Z,47.10
2019-02-26T19:15:36.151Z,47.40
2019-02-26T19:18:05.481Z,46.80
2019-02-26T19:20:36.724Z,47.30
2019-02-26T19:23:05.755Z,48.40
2019-02-26T19:25:34.908Z,49.20
2019-02-26T19:28:04.097Z,51.10
2019-02-26T19:30:36.739Z,48.70
2019-02-26T19:33:04.068Z,48.80
2019-02-26T19:35:36.363Z,47.50
2019-02-26T19:38:05.580Z,48.60
2019-02-26T19:40:40.523Z,49.40
2019-02-26T19:43:09.575Z,49.50
2019-02-26T19:45:38.915Z,49.30
2019-02-26T19:48:07.946Z,48.50
2019-02-26T19:50:37.199Z,48.90
2019-02-26T19:53:06.419Z,49.80
2019-02-26T19:55:43.972Z,49.80
2019-02-26T19:58:13.094Z,50.90
2019-02-26T20:00:42.119Z,50.40
2019-02-26T20:03:11.166Z,50.80
2019-02-26T20:05:41.201Z,50.30
2019-02-26T20:08:10.559Z,52.80
2019-02-26T20:10:39.818Z,52.00
2019-02-26T20:13:12.518Z,51.30
2019-02-26T20:15:39.775Z,51.40
2019-02-26T20:18:19.774Z,52.00
2019-02-26T20:20:40.997Z,52.50
2019-02-26T20:26:40.001Z,55.40
2019-02-26T20:29:09.253Z,51.60
2019-02-26T20:31:38.463Z,52.90
2019-02-26T20:34:07.632Z,53.80
2019-02-26T20:36:36.764Z,54.00
2019-02-26T20:39:07.982Z,55.10
2019-02-26T20:41:37.585Z,55.10
2019-02-26T20:44:10.166Z,54.70
2019-02-26T20:46:41.812Z,54.90
2019-02-26T20:49:12.353Z,54.80
2019-02-26T20:51:44.162Z,54.90
2019-02-26T20:54:14.351Z,54.50
2019-02-26T20:56:44.887Z,55.10
2019-02-26T20:59:18.558Z,55.30
2019-02-26T21:01:49.417Z,56.60
2019-02-26T21:04:18.399Z,56.60
2019-02-26T21:06:50.681Z,56.00
2019-02-26T21:09:20.100Z,56.60
2019-02-26T21:11:53.584Z,56.20
2019-02-26T21:14:22.643Z,56.40
2019-02-26T21:16:54.505Z,59.00
2019-02-26T21:19:24.332Z,56.20
2019-02-26T21:21:54.060Z,56.70
2019-02-26T21:24:26.536Z,57.10
2019-02-26T21:26:55.430Z,56.70
2019-02-26T21:29:24.538Z,57.30
2019-02-26T21:31:53.825Z,56.60
2019-02-26T21:34:23.196Z,56.70
2019-02-26T21:36:52.463Z,57.40
2019-02-26T21:39:21.691Z,56.80
2019-02-26T21:41:55.602Z,57.40
2019-02-26T21:44:25.303Z,57.60
2019-02-26T21:46:56.199Z,56.90
2019-02-26T21:49:25.675Z,56.90
2019-02-26T21:51:55.266Z,57.20
2019-02-26T21:54:26.773Z,56.70
2019-02-26T21:56:57.183Z,57.10
2019-02-26T21:59:28.261Z,56.90
2019-02-26T22:01:58.277Z,58.00
2019-02-26T22:04:31.691Z,58.30
2019-02-26T22:06:58.783Z,58.60
2019-02-26T22:09:30.045Z,58.30
2019-02-26T22:11:58.912Z,57.90
2019-02-26T22:14:28.192Z,59.00
2019-02-26T22:16:57.660Z,59.00
2019-02-26T22:19:26.985Z,58.90
2019-02-26T22:21:56.570Z,61.60
2019-02-26T22:24:25.779Z,60.20
2019-02-26T22:26:59.458Z,59.30
2019-02-26T22:29:27.129Z,59.40
2019-02-26T22:32:01.503Z,58.60
2019-02-26T22:34:28.311Z,57.90
2019-02-26T22:36:57.645Z,57.60
2019-02-26T22:39:28.040Z,58.00
2019-02-26T22:41:57.459Z,57.40
2019-02-26T22:44:26.535Z,57.50
2019-02-26T22:46:55.731Z,57.10
2019-02-26T22:49:24.935Z,57.40
2019-02-26T22:51:58.429Z,58.00
2019-02-26T22:54:25.933Z,58.20
2019-02-26T22:56:56.884Z,58.50
2019-02-26T22:59:25.971Z,58.30
2019-02-26T23:01:55.995Z,57.60
2019-02-26T23:04:25.264Z,58.90
2019-02-26T23:06:54.455Z,59.20
2019-02-26T23:09:25.085Z,59.30
2019-02-26T23:11:54.834Z,60.70
2019-02-26T23:14:24.055Z,59.00
2019-02-26T23:16:53.441Z,58.80
2019-02-26T23:19:22.715Z,58.20
2019-02-26T23:21:51.984Z,57.90
2019-02-26T23:24:21.159Z,58.40
2019-02-26T23:26:50.454Z,58.80
2019-02-26T23:29:19.693Z,59.50
2019-02-26T23:31:48.947Z,58.90
2019-02-26T23:34:21.643Z,59.70
2019-02-26T23:36:49.101Z,59.70
2019-02-26T23:39:18.329Z,59.40
2019-02-26T23:41:47.398Z,59.40
2019-02-26T23:44:17.989Z,59.40
2019-02-26T23:46:47.495Z,59.40
2019-02-26T23:49:16.664Z,59.20
2019-02-26T23:51:45.906Z,58.90
2019-02-26T23:54:15.375Z,59.10
2019-02-26T23:56:44.490Z,58.60
2019-02-26T23:59:13.893Z,58.70
